Sitka Rocky Gutierrez Airport
PASI : rendu visible

Aérodrome :











RETROUVEZ-NOUS SUR...

 
LOGIN :

S'inscrire | Disclaimer

   EN    FR    IT 

 









Légende :    VFR   VFR Marginal   IFR   IFR Intensif   IFR Très Intensif
Visi : 
Plafond : 
>= 8 km
>= 3000ft
5 à 8 km
1000 à 3000 ft
1500m à 5 km
500 à 1000 ft
800 à 1500m
200 à 500 ft
< 800m
< 200 ft
Symboles :   Orages  Brouillard  Fortes neiges  Fortes précipitations  Vent > 20 kt






- Altitude de l'aérodrome : 21 ft
- Code IATA : SIT


PASI - Sitka Rocky Gutierrez

DERNIER METAR :
  • 210653Z 05003KT 10SM CLR 02/01 A3021 RMK AO2 SLP231 T00220006

METARs EXPIRÉS :
  • 210553Z 08005KT 10SM BKN033 03/01 A3020 RMK AO2 SLP225 60000 T00280011 10072 20028 51018
  • 210453Z 03003KT 10SM SCT044 03/01 A3018 RMK AO2 SLP220 T00280011

TAF PASI
Valide du 21 à 06h jusqu'au 22 à 06h UTC


210524Z 2106/2206 07006KT P6SM SCT045
FIR PAZA / Amérique du Nord



MET'MAP, la Météo Aéronautique d'un coup d'oeil ! - Copyright ORBIFLY Décembre 2007 - Disclaimer

ORBIFLY MET'MAP TEAM :

Programmation & Développement : Alexandra Zaïnal
Sur une idée originale de : Baudouin d'Aumeries
Assistance à la programmation : Marc-Olivier Méhu
Soutien technique & logistique : Manuel Goepfert

Contact : metmap@orbifly.com




SOURCES & CREDITS :

   NOAA       Earth
Advisory